sensor_id;sensor_type;location;lat;lon;timestamp;P1;durP1;ratioP1;P2;durP2;ratioP2
34278;SDS011;20538;51.528;9.942;2023-05-10T00:02:13;5.28;;;2.55;;
34278;SDS011;20538;51.528;9.942;2023-05-10T00:04:39;5.30;;;2.70;;
34278;SDS011;20538;51.528;9.942;2023-05-10T00:07:04;2.65;;;2.10;;
34278;SDS011;20538;51.528;9.942;2023-05-10T00:09:30;6.07;;;2.60;;
34278;SDS011;20538;51.528;9.942;2023-05-10T00:11:55;6.25;;;2.85;;
34278;SDS011;20538;51.528;9.942;2023-05-10T00:14:23;4.68;;;2.72;;
34278;SDS011;20538;51.528;9.942;2023-05-10T00:16:48;5.00;;;2.72;;
34278;SDS011;20538;51.528;9.942;2023-05-10T00:19:14;3.58;;;2.45;;
34278;SDS011;20538;51.528;9.942;2023-05-10T00:21:40;3.80;;;2.60;;
34278;SDS011;20538;51.528;9.942;2023-05-10T00:24:05;4.90;;;2.20;;
34278;SDS011;20538;51.528;9.942;2023-05-10T00:26:31;7.95;;;2.60;;
34278;SDS011;20538;51.528;9.942;2023-05-10T00:28:57;5.32;;;2.97;;
34278;SDS011;20538;51.528;9.942;2023-05-10T00:31:23;7.15;;;3.05;;
34278;SDS011;20538;51.528;9.942;2023-05-10T00:33:49;4.57;;;3.17;;
34278;SDS011;20538;51.528;9.942;2023-05-10T00:36:14;4.05;;;2.67;;
34278;SDS011;20538;51.528;9.942;2023-05-10T00:38:40;6.35;;;3.15;;
34278;SDS011;20538;51.528;9.942;2023-05-10T00:41:05;8.77;;;2.88;;
34278;SDS011;20538;51.528;9.942;2023-05-10T00:43:31;3.60;;;2.70;;
34278;SDS011;20538;51.528;9.942;2023-05-10T00:45:57;9.63;;;2.88;;
34278;SDS011;20538;51.528;9.942;2023-05-10T00:48:22;4.63;;;2.50;;
34278;SDS011;20538;51.528;9.942;2023-05-10T00:50:48;6.15;;;3.33;;
34278;SDS011;20538;51.528;9.942;2023-05-10T00:53:14;5.45;;;2.55;;
34278;SDS011;20538;51.528;9.942;2023-05-10T00:55:40;6.78;;;2.70;;
34278;SDS011;20538;51.528;9.942;2023-05-10T00:58:06;4.85;;;2.75;;
34278;SDS011;20538;51.528;9.942;2023-05-10T01:00:33;8.32;;;2.97;;
34278;SDS011;20538;51.528;9.942;2023-05-10T01:02:59;6.53;;;2.90;;
34278;SDS011;20538;51.528;9.942;2023-05-10T01:05:24;3.28;;;2.58;;
34278;SDS011;20538;51.528;9.942;2023-05-10T01:07:52;4.85;;;2.78;;
34278;SDS011;20538;51.528;9.942;2023-05-10T01:10:17;4.55;;;2.80;;
34278;SDS011;20538;51.528;9.942;2023-05-10T01:12:44;4.22;;;3.00;;
34278;SDS011;20538;51.528;9.942;2023-05-10T01:15:12;4.25;;;2.80;;
34278;SDS011;20538;51.528;9.942;2023-05-10T01:17:39;6.22;;;2.72;;
34278;SDS011;20538;51.528;9.942;2023-05-10T01:20:07;4.50;;;2.85;;
34278;SDS011;20538;51.528;9.942;2023-05-10T01:34:35;6.72;;;2.70;;
34278;SDS011;20538;51.528;9.942;2023-05-10T01:37:57;5.20;;;2.67;;
34278;SDS011;20538;51.528;9.942;2023-05-10T01:40:19;6.00;;;2.85;;
34278;SDS011;20538;51.528;9.942;2023-05-10T01:43:03;5.30;;;3.10;;
34278;SDS011;20538;51.528;9.942;2023-05-10T01:48:15;6.85;;;3.30;;
34278;SDS011;20538;51.528;9.942;2023-05-10T01:50:43;8.00;;;3.10;;
34278;SDS011;20538;51.528;9.942;2023-05-10T01:53:12;4.43;;;2.90;;
34278;SDS011;20538;51.528;9.942;2023-05-10T01:55:47;5.43;;;3.28;;
34278;SDS011;20538;51.528;9.942;2023-05-10T01:58:19;5.88;;;3.05;;
34278;SDS011;20538;51.528;9.942;2023-05-10T02:00:48;9.88;;;3.55;;
34278;SDS011;20538;51.528;9.942;2023-05-10T02:03:16;3.97;;;2.90;;
34278;SDS011;20538;51.528;9.942;2023-05-10T02:05:45;3.55;;;2.75;;
34278;SDS011;20538;51.528;9.942;2023-05-10T02:08:13;5.32;;;3.60;;
34278;SDS011;20538;51.528;9.942;2023-05-10T02:10:39;4.28;;;2.95;;
34278;SDS011;20538;51.528;9.942;2023-05-10T02:13:05;4.70;;;2.75;;
34278;SDS011;20538;51.528;9.942;2023-05-10T02:15:33;5.95;;;3.17;;
34278;SDS011;20538;51.528;9.942;2023-05-10T02:18:00;8.07;;;2.75;;
34278;SDS011;20538;51.528;9.942;2023-05-10T02:20:28;4.00;;;2.92;;
34278;SDS011;20538;51.528;9.942;2023-05-10T02:22:56;3.85;;;3.10;;
34278;SDS011;20538;51.528;9.942;2023-05-10T02:25:23;6.65;;;2.70;;
34278;SDS011;20538;51.528;9.942;2023-05-10T02:27:50;8.13;;;2.97;;
34278;SDS011;20538;51.528;9.942;2023-05-10T02:30:20;9.35;;;3.50;;
34278;SDS011;20538;51.528;9.942;2023-05-10T02:32:46;5.20;;;2.92;;
34278;SDS011;20538;51.528;9.942;2023-05-10T02:35:13;4.95;;;3.00;;
34278;SDS011;20538;51.528;9.942;2023-05-10T02:37:40;8.52;;;2.97;;
34278;SDS011;20538;51.528;9.942;2023-05-10T02:40:07;4.68;;;3.40;;
34278;SDS011;20538;51.528;9.942;2023-05-10T02:42:35;5.43;;;3.00;;
34278;SDS011;20538;51.528;9.942;2023-05-10T02:45:03;5.50;;;3.20;;
34278;SDS011;20538;51.528;9.942;2023-05-10T02:47:33;3.97;;;2.92;;
34278;SDS011;20538;51.528;9.942;2023-05-10T02:49:59;5.32;;;3.58;;
34278;SDS011;20538;51.528;9.942;2023-05-10T02:52:25;7.07;;;3.25;;
34278;SDS011;20538;51.528;9.942;2023-05-10T02:54:55;7.38;;;3.50;;
34278;SDS011;20538;51.528;9.942;2023-05-10T02:57:26;6.93;;;3.35;;
34278;SDS011;20538;51.528;9.942;2023-05-10T02:59:55;4.97;;;3.42;;
34278;SDS011;20538;51.528;9.942;2023-05-10T03:02:20;7.10;;;3.45;;
34278;SDS011;20538;51.528;9.942;2023-05-10T03:04:46;5.80;;;3.15;;
34278;SDS011;20538;51.528;9.942;2023-05-10T03:07:12;7.63;;;3.28;;
34278;SDS011;20538;51.528;9.942;2023-05-10T03:09:38;4.40;;;3.50;;
34278;SDS011;20538;51.528;9.942;2023-05-10T03:18:10;3.95;;;3.40;;
34278;SDS011;20538;51.528;9.942;2023-05-10T03:20:42;8.80;;;3.95;;
34278;SDS011;20538;51.528;9.942;2023-05-10T03:23:35;5.22;;;3.65;;
34278;SDS011;20538;51.528;9.942;2023-05-10T03:26:05;5.95;;;4.05;;
34278;SDS011;20538;51.528;9.942;2023-05-10T03:28:33;6.32;;;3.60;;
34278;SDS011;20538;51.528;9.942;2023-05-10T03:31:00;5.38;;;3.80;;
34278;SDS011;20538;51.528;9.942;2023-05-10T03:33:29;7.78;;;3.88;;
34278;SDS011;20538;51.528;9.942;2023-05-10T03:35:54;7.35;;;4.32;;
34278;SDS011;20538;51.528;9.942;2023-05-10T03:38:20;5.78;;;4.13;;
34278;SDS011;20538;51.528;9.942;2023-05-10T03:40:46;5.40;;;4.30;;
34278;SDS011;20538;51.528;9.942;2023-05-10T03:43:11;6.03;;;4.45;;
34278;SDS011;20538;51.528;9.942;2023-05-10T03:45:37;6.65;;;4.65;;
34278;SDS011;20538;51.528;9.942;2023-05-10T03:48:02;8.90;;;4.53;;
34278;SDS011;20538;51.528;9.942;2023-05-10T03:50:28;6.65;;;4.28;;
34278;SDS011;20538;51.528;9.942;2023-05-10T03:52:54;8.50;;;4.25;;
34278;SDS011;20538;51.528;9.942;2023-05-10T03:55:20;11.40;;;4.63;;
34278;SDS011;20538;51.528;9.942;2023-05-10T03:57:45;7.20;;;4.18;;
34278;SDS011;20538;51.528;9.942;2023-05-10T04:00:11;7.22;;;4.78;;
34278;SDS011;20538;51.528;9.942;2023-05-10T04:02:37;6.80;;;5.13;;
34278;SDS011;20538;51.528;9.942;2023-05-10T04:05:03;7.35;;;5.18;;
34278;SDS011;20538;51.528;9.942;2023-05-10T04:07:28;7.43;;;5.05;;
34278;SDS011;20538;51.528;9.942;2023-05-10T04:09:54;6.50;;;4.95;;
34278;SDS011;20538;51.528;9.942;2023-05-10T04:12:22;9.18;;;4.68;;
34278;SDS011;20538;51.528;9.942;2023-05-10T04:14:48;6.10;;;5.15;;
34278;SDS011;20538;51.528;9.942;2023-05-10T04:17:16;7.47;;;5.28;;
34278;SDS011;20538;51.528;9.942;2023-05-10T04:19:42;7.15;;;4.80;;
34278;SDS011;20538;51.528;9.942;2023-05-10T04:22:07;7.55;;;5.85;;
34278;SDS011;20538;51.528;9.942;2023-05-10T04:24:33;10.20;;;5.30;;
34278;SDS011;20538;51.528;9.942;2023-05-10T04:26:59;7.28;;;5.45;;
34278;SDS011;20538;51.528;9.942;2023-05-10T04:29:25;8.65;;;5.50;;
34278;SDS011;20538;51.528;9.942;2023-05-10T04:31:51;9.82;;;6.07;;
34278;SDS011;20538;51.528;9.942;2023-05-10T04:34:17;10.43;;;5.90;;
34278;SDS011;20538;51.528;9.942;2023-05-10T04:36:43;10.95;;;6.75;;
34278;SDS011;20538;51.528;9.942;2023-05-10T04:39:09;10.88;;;6.30;;
34278;SDS011;20538;51.528;9.942;2023-05-10T04:41:34;8.82;;;5.88;;
34278;SDS011;20538;51.528;9.942;2023-05-10T04:44:00;10.50;;;6.00;;
34278;SDS011;20538;51.528;9.942;2023-05-10T04:46:26;15.15;;;6.60;;
34278;SDS011;20538;51.528;9.942;2023-05-10T04:48:51;13.23;;;5.85;;
34278;SDS011;20538;51.528;9.942;2023-05-10T04:51:17;11.13;;;5.97;;
34278;SDS011;20538;51.528;9.942;2023-05-10T04:53:42;11.15;;;6.68;;
34278;SDS011;20538;51.528;9.942;2023-05-10T04:56:08;10.20;;;7.03;;
34278;SDS011;20538;51.528;9.942;2023-05-10T04:58:33;12.20;;;6.75;;
34278;SDS011;20538;51.528;9.942;2023-05-10T05:01:05;10.65;;;6.80;;
34278;SDS011;20538;51.528;9.942;2023-05-10T05:03:33;11.65;;;6.60;;
34278;SDS011;20538;51.528;9.942;2023-05-10T05:05:58;8.45;;;6.25;;
34278;SDS011;20538;51.528;9.942;2023-05-10T05:08:24;9.40;;;6.80;;
34278;SDS011;20538;51.528;9.942;2023-05-10T05:10:50;11.65;;;6.55;;
34278;SDS011;20538;51.528;9.942;2023-05-10T05:13:16;8.75;;;6.88;;
34278;SDS011;20538;51.528;9.942;2023-05-10T05:15:41;11.80;;;7.30;;
34278;SDS011;20538;51.528;9.942;2023-05-10T05:18:07;11.27;;;6.40;;
34278;SDS011;20538;51.528;9.942;2023-05-10T05:20:33;9.70;;;7.20;;
34278;SDS011;20538;51.528;9.942;2023-05-10T05:22:59;9.55;;;6.95;;
34278;SDS011;20538;51.528;9.942;2023-05-10T05:25:25;13.15;;;7.30;;
34278;SDS011;20538;51.528;9.942;2023-05-10T05:27:51;9.95;;;6.50;;
34278;SDS011;20538;51.528;9.942;2023-05-10T05:30:16;12.05;;;6.82;;
34278;SDS011;20538;51.528;9.942;2023-05-10T05:32:42;11.00;;;6.80;;
34278;SDS011;20538;51.528;9.942;2023-05-10T05:35:08;8.35;;;6.05;;
34278;SDS011;20538;51.528;9.942;2023-05-10T05:37:33;9.10;;;6.20;;
34278;SDS011;20538;51.528;9.942;2023-05-10T05:40:00;10.15;;;6.32;;
34278;SDS011;20538;51.528;9.942;2023-05-10T05:42:26;8.27;;;6.00;;
34278;SDS011;20538;51.528;9.942;2023-05-10T05:44:52;8.27;;;5.90;;
34278;SDS011;20538;51.528;9.942;2023-05-10T05:47:18;7.68;;;5.88;;
34278;SDS011;20538;51.528;9.942;2023-05-10T05:49:43;7.97;;;5.90;;
34278;SDS011;20538;51.528;9.942;2023-05-10T05:52:12;9.00;;;5.15;;
34278;SDS011;20538;51.528;9.942;2023-05-10T05:54:37;7.50;;;5.63;;
34278;SDS011;20538;51.528;9.942;2023-05-10T05:57:06;7.82;;;6.00;;
34278;SDS011;20538;51.528;9.942;2023-05-10T05:59:32;7.68;;;5.53;;
34278;SDS011;20538;51.528;9.942;2023-05-10T06:01:58;8.35;;;5.50;;
34278;SDS011;20538;51.528;9.942;2023-05-10T06:04:23;7.97;;;5.68;;
34278;SDS011;20538;51.528;9.942;2023-05-10T06:06:49;8.90;;;5.78;;
34278;SDS011;20538;51.528;9.942;2023-05-10T06:09:15;8.07;;;5.40;;
34278;SDS011;20538;51.528;9.942;2023-05-10T06:11:41;9.75;;;6.10;;
34278;SDS011;20538;51.528;9.942;2023-05-10T06:14:07;7.95;;;5.18;;
34278;SDS011;20538;51.528;9.942;2023-05-10T06:16:35;6.65;;;5.03;;
34278;SDS011;20538;51.528;9.942;2023-05-10T06:19:02;7.90;;;5.45;;
34278;SDS011;20538;51.528;9.942;2023-05-10T06:21:27;8.90;;;5.47;;
34278;SDS011;20538;51.528;9.942;2023-05-10T06:23:53;7.72;;;5.10;;
34278;SDS011;20538;51.528;9.942;2023-05-10T06:26:18;7.07;;;5.15;;
34278;SDS011;20538;51.528;9.942;2023-05-10T06:28:45;5.55;;;4.60;;
34278;SDS011;20538;51.528;9.942;2023-05-10T06:31:11;7.18;;;5.28;;
34278;SDS011;20538;51.528;9.942;2023-05-10T06:33:37;5.93;;;4.45;;
34278;SDS011;20538;51.528;9.942;2023-05-10T06:36:03;7.45;;;5.15;;
34278;SDS011;20538;51.528;9.942;2023-05-10T06:38:28;7.93;;;5.22;;
34278;SDS011;20538;51.528;9.942;2023-05-10T06:40:54;7.43;;;5.30;;
34278;SDS011;20538;51.528;9.942;2023-05-10T06:43:20;9.50;;;4.90;;
34278;SDS011;20538;51.528;9.942;2023-05-10T06:45:47;9.35;;;5.55;;
34278;SDS011;20538;51.528;9.942;2023-05-10T06:48:13;7.88;;;4.70;;
34278;SDS011;20538;51.528;9.942;2023-05-10T06:50:39;7.07;;;4.43;;
34278;SDS011;20538;51.528;9.942;2023-05-10T06:53:04;6.47;;;5.38;;
34278;SDS011;20538;51.528;9.942;2023-05-10T06:55:30;6.07;;;4.70;;
34278;SDS011;20538;51.528;9.942;2023-05-10T06:57:56;6.50;;;3.90;;
34278;SDS011;20538;51.528;9.942;2023-05-10T07:00:21;6.95;;;3.50;;
34278;SDS011;20538;51.528;9.942;2023-05-10T07:02:50;6.40;;;3.35;;
34278;SDS011;20538;51.528;9.942;2023-05-10T07:05:16;4.55;;;3.25;;
34278;SDS011;20538;51.528;9.942;2023-05-10T07:07:42;6.25;;;3.22;;
34278;SDS011;20538;51.528;9.942;2023-05-10T07:10:08;9.35;;;4.40;;
34278;SDS011;20538;51.528;9.942;2023-05-10T07:12:35;5.38;;;3.08;;
34278;SDS011;20538;51.528;9.942;2023-05-10T07:15:00;2.50;;;1.50;;
34278;SDS011;20538;51.528;9.942;2023-05-10T07:17:26;2.22;;;1.48;;
34278;SDS011;20538;51.528;9.942;2023-05-10T07:19:52;3.15;;;1.13;;
34278;SDS011;20538;51.528;9.942;2023-05-10T07:22:17;3.88;;;1.52;;
34278;SDS011;20538;51.528;9.942;2023-05-10T07:24:43;0.77;;;0.60;;
34278;SDS011;20538;51.528;9.942;2023-05-10T07:27:09;0.98;;;0.40;;
34278;SDS011;20538;51.528;9.942;2023-05-10T07:29:37;0.60;;;0.60;;
34278;SDS011;20538;51.528;9.942;2023-05-10T07:32:02;1.58;;;0.60;;
34278;SDS011;20538;51.528;9.942;2023-05-10T07:34:28;3.05;;;0.90;;
34278;SDS011;20538;51.528;9.942;2023-05-10T07:36:55;0.50;;;0.45;;
34278;SDS011;20538;51.528;9.942;2023-05-10T07:39:22;0.57;;;0.40;;
34278;SDS011;20538;51.528;9.942;2023-05-10T07:41:48;0.77;;;0.50;;
34278;SDS011;20538;51.528;9.942;2023-05-10T07:44:14;0.73;;;0.50;;
34278;SDS011;20538;51.528;9.942;2023-05-10T07:46:39;1.00;;;0.50;;
34278;SDS011;20538;51.528;9.942;2023-05-10T07:49:05;1.10;;;0.52;;
34278;SDS011;20538;51.528;9.942;2023-05-10T07:51:31;1.65;;;0.40;;
34278;SDS011;20538;51.528;9.942;2023-05-10T07:53:57;0.43;;;0.43;;
34278;SDS011;20538;51.528;9.942;2023-05-10T07:56:26;1.23;;;0.57;;
34278;SDS011;20538;51.528;9.942;2023-05-10T07:58:58;1.10;;;0.50;;
34278;SDS011;20538;51.528;9.942;2023-05-10T08:01:24;0.57;;;0.50;;
34278;SDS011;20538;51.528;9.942;2023-05-10T08:03:51;0.50;;;0.30;;
34278;SDS011;20538;51.528;9.942;2023-05-10T08:06:18;2.55;;;0.50;;
34278;SDS011;20538;51.528;9.942;2023-05-10T08:08:45;2.72;;;0.70;;
34278;SDS011;20538;51.528;9.942;2023-05-10T08:11:17;0.40;;;0.40;;
34278;SDS011;20538;51.528;9.942;2023-05-10T08:13:43;2.92;;;0.80;;
34278;SDS011;20538;51.528;9.942;2023-05-10T08:16:10;1.27;;;0.50;;
34278;SDS011;20538;51.528;9.942;2023-05-10T08:18:37;0.50;;;0.50;;
34278;SDS011;20538;51.528;9.942;2023-05-10T08:21:03;1.17;;;0.60;;
34278;SDS011;20538;51.528;9.942;2023-05-10T08:23:29;1.67;;;0.70;;
34278;SDS011;20538;51.528;9.942;2023-05-10T08:25:54;1.27;;;0.60;;
34278;SDS011;20538;51.528;9.942;2023-05-10T08:28:20;1.77;;;0.70;;
34278;SDS011;20538;51.528;9.942;2023-05-10T08:30:46;0.63;;;0.57;;
34278;SDS011;20538;51.528;9.942;2023-05-10T08:33:11;0.70;;;0.55;;
34278;SDS011;20538;51.528;9.942;2023-05-10T08:35:37;0.63;;;0.50;;
34278;SDS011;20538;51.528;9.942;2023-05-10T08:38:02;2.20;;;0.65;;
34278;SDS011;20538;51.528;9.942;2023-05-10T08:40:28;0.47;;;0.40;;
34278;SDS011;20538;51.528;9.942;2023-05-10T08:42:55;1.80;;;0.60;;
34278;SDS011;20538;51.528;9.942;2023-05-10T08:45:27;2.45;;;0.80;;
34278;SDS011;20538;51.528;9.942;2023-05-10T08:47:57;3.40;;;0.82;;
34278;SDS011;20538;51.528;9.942;2023-05-10T08:50:24;3.90;;;0.98;;
34278;SDS011;20538;51.528;9.942;2023-05-10T08:52:50;1.05;;;0.80;;
34278;SDS011;20538;51.528;9.942;2023-05-10T08:55:20;4.28;;;0.82;;
34278;SDS011;20538;51.528;9.942;2023-05-10T08:57:48;1.02;;;0.60;;
34278;SDS011;20538;51.528;9.942;2023-05-10T09:00:14;1.08;;;0.93;;
34278;SDS011;20538;51.528;9.942;2023-05-10T09:02:40;2.35;;;0.60;;
34278;SDS011;20538;51.528;9.942;2023-05-10T09:05:08;1.20;;;0.73;;
34278;SDS011;20538;51.528;9.942;2023-05-10T09:07:34;0.63;;;0.63;;
34278;SDS011;20538;51.528;9.942;2023-05-10T09:10:01;0.70;;;0.65;;
34278;SDS011;20538;51.528;9.942;2023-05-10T09:12:29;2.67;;;0.43;;
34278;SDS011;20538;51.528;9.942;2023-05-10T09:14:55;1.67;;;0.80;;
34278;SDS011;20538;51.528;9.942;2023-05-10T09:17:23;2.05;;;0.65;;
34278;SDS011;20538;51.528;9.942;2023-05-10T09:19:50;1.48;;;0.77;;
34278;SDS011;20538;51.528;9.942;2023-05-10T09:22:22;2.50;;;0.80;;
34278;SDS011;20538;51.528;9.942;2023-05-10T09:25:02;2.17;;;0.80;;
34278;SDS011;20538;51.528;9.942;2023-05-10T09:27:29;2.03;;;0.80;;
34278;SDS011;20538;51.528;9.942;2023-05-10T09:29:54;0.50;;;0.40;;
34278;SDS011;20538;51.528;9.942;2023-05-10T09:32:20;0.73;;;0.50;;
34278;SDS011;20538;51.528;9.942;2023-05-10T09:34:46;1.13;;;0.50;;
34278;SDS011;20538;51.528;9.942;2023-05-10T09:37:15;0.50;;;0.50;;
34278;SDS011;20538;51.528;9.942;2023-05-10T09:39:40;0.65;;;0.55;;
34278;SDS011;20538;51.528;9.942;2023-05-10T09:42:09;2.70;;;0.93;;
34278;SDS011;20538;51.528;9.942;2023-05-10T09:44:35;2.17;;;0.90;;
34278;SDS011;20538;51.528;9.942;2023-05-10T09:47:02;2.00;;;0.80;;
34278;SDS011;20538;51.528;9.942;2023-05-10T09:49:28;1.27;;;0.73;;
34278;SDS011;20538;51.528;9.942;2023-05-10T09:52:04;1.13;;;0.70;;
34278;SDS011;20538;51.528;9.942;2023-05-10T09:54:31;0.90;;;0.80;;
34278;SDS011;20538;51.528;9.942;2023-05-10T09:56:57;1.90;;;0.60;;
34278;SDS011;20538;51.528;9.942;2023-05-10T09:59:26;0.82;;;0.60;;
34278;SDS011;20538;51.528;9.942;2023-05-10T10:01:54;0.93;;;0.70;;
34278;SDS011;20538;51.528;9.942;2023-05-10T10:04:22;1.70;;;0.80;;
34278;SDS011;20538;51.528;9.942;2023-05-10T10:06:58;2.40;;;1.00;;
34278;SDS011;20538;51.528;9.942;2023-05-10T10:09:25;5.38;;;0.65;;
34278;SDS011;20538;51.528;9.942;2023-05-10T10:11:51;1.10;;;0.68;;
34278;SDS011;20538;51.528;9.942;2023-05-10T10:14:19;4.35;;;1.02;;
34278;SDS011;20538;51.528;9.942;2023-05-10T10:16:46;2.05;;;0.60;;
34278;SDS011;20538;51.528;9.942;2023-05-10T10:19:13;1.52;;;0.70;;
34278;SDS011;20538;51.528;9.942;2023-05-10T10:21:40;1.70;;;0.60;;
34278;SDS011;20538;51.528;9.942;2023-05-10T10:24:06;2.10;;;0.50;;
34278;SDS011;20538;51.528;9.942;2023-05-10T10:26:35;1.33;;;0.50;;
34278;SDS011;20538;51.528;9.942;2023-05-10T10:29:19;2.30;;;0.73;;
34278;SDS011;20538;51.528;9.942;2023-05-10T10:32:03;0.95;;;0.52;;
34278;SDS011;20538;51.528;9.942;2023-05-10T10:34:45;2.45;;;0.68;;
34278;SDS011;20538;51.528;9.942;2023-05-10T10:37:11;1.20;;;0.50;;
34278;SDS011;20538;51.528;9.942;2023-05-10T10:39:37;1.90;;;0.50;;
34278;SDS011;20538;51.528;9.942;2023-05-10T10:42:03;0.50;;;0.45;;
34278;SDS011;20538;51.528;9.942;2023-05-10T10:52:14;6.15;;;0.80;;
34278;SDS011;20538;51.528;9.942;2023-05-10T11:00:23;1.02;;;0.70;;
34278;SDS011;20538;51.528;9.942;2023-05-10T11:08:13;2.60;;;0.82;;
34278;SDS011;20538;51.528;9.942;2023-05-10T11:10:39;1.25;;;0.98;;
34278;SDS011;20538;51.528;9.942;2023-05-10T11:13:13;1.63;;;0.80;;
34278;SDS011;20538;51.528;9.942;2023-05-10T11:15:39;4.85;;;1.05;;
34278;SDS011;20538;51.528;9.942;2023-05-10T11:18:16;0.95;;;0.80;;
34278;SDS011;20538;51.528;9.942;2023-05-10T11:20:42;1.52;;;0.77;;
34278;SDS011;20538;51.528;9.942;2023-05-10T11:23:12;2.45;;;0.90;;
34278;SDS011;20538;51.528;9.942;2023-05-10T11:25:43;3.50;;;0.90;;
34278;SDS011;20538;51.528;9.942;2023-05-10T11:28:17;1.20;;;0.73;;
34278;SDS011;20538;51.528;9.942;2023-05-10T11:30:44;3.08;;;1.00;;
34278;SDS011;20538;51.528;9.942;2023-05-10T11:33:14;1.65;;;1.00;;
34278;SDS011;20538;51.528;9.942;2023-05-10T11:35:42;1.13;;;0.93;;
34278;SDS011;20538;51.528;9.942;2023-05-10T11:38:08;2.78;;;1.00;;
34278;SDS011;20538;51.528;9.942;2023-05-10T11:40:37;1.55;;;0.80;;
34278;SDS011;20538;51.528;9.942;2023-05-10T11:43:03;1.40;;;0.80;;
34278;SDS011;20538;51.528;9.942;2023-05-10T11:45:33;2.20;;;0.45;;
34278;SDS011;20538;51.528;9.942;2023-05-10T11:48:00;0.73;;;0.60;;
34278;SDS011;20538;51.528;9.942;2023-05-10T11:50:26;0.80;;;0.68;;
34278;SDS011;20538;51.528;9.942;2023-05-10T11:52:53;0.98;;;0.60;;
34278;SDS011;20538;51.528;9.942;2023-05-10T11:55:22;0.88;;;0.80;;
34278;SDS011;20538;51.528;9.942;2023-05-10T11:57:53;0.93;;;0.70;;
34278;SDS011;20538;51.528;9.942;2023-05-10T12:00:20;1.00;;;0.82;;
34278;SDS011;20538;51.528;9.942;2023-05-10T12:02:47;1.00;;;0.90;;
34278;SDS011;20538;51.528;9.942;2023-05-10T12:05:13;1.85;;;0.80;;
34278;SDS011;20538;51.528;9.942;2023-05-10T12:07:39;2.05;;;0.90;;
34278;SDS011;20538;51.528;9.942;2023-05-10T12:15:10;2.63;;;1.30;;
34278;SDS011;20538;51.528;9.942;2023-05-10T12:17:37;3.17;;;1.77;;
34278;SDS011;20538;51.528;9.942;2023-05-10T12:23:02;3.33;;;1.83;;
34278;SDS011;20538;51.528;9.942;2023-05-10T12:25:34;3.63;;;2.25;;
34278;SDS011;20538;51.528;9.942;2023-05-10T12:28:06;3.63;;;2.35;;
34278;SDS011;20538;51.528;9.942;2023-05-10T12:30:34;3.63;;;1.90;;
34278;SDS011;20538;51.528;9.942;2023-05-10T12:35:31;4.22;;;2.50;;
34278;SDS011;20538;51.528;9.942;2023-05-10T12:37:58;6.13;;;2.50;;
34278;SDS011;20538;51.528;9.942;2023-05-10T12:40:24;3.20;;;2.28;;
34278;SDS011;20538;51.528;9.942;2023-05-10T12:42:50;3.88;;;2.17;;
34278;SDS011;20538;51.528;9.942;2023-05-10T12:45:16;3.10;;;2.53;;
34278;SDS011;20538;51.528;9.942;2023-05-10T12:47:43;3.83;;;2.25;;
34278;SDS011;20538;51.528;9.942;2023-05-10T12:50:08;3.33;;;2.50;;
34278;SDS011;20538;51.528;9.942;2023-05-10T12:52:35;4.53;;;2.30;;
34278;SDS011;20538;51.528;9.942;2023-05-10T12:55:01;3.75;;;2.95;;
34278;SDS011;20538;51.528;9.942;2023-05-10T12:57:28;6.40;;;2.60;;
34278;SDS011;20538;51.528;9.942;2023-05-10T12:59:54;4.03;;;2.88;;
34278;SDS011;20538;51.528;9.942;2023-05-10T13:02:20;5.47;;;3.10;;
34278;SDS011;20538;51.528;9.942;2023-05-10T13:04:47;5.13;;;3.90;;
34278;SDS011;20538;51.528;9.942;2023-05-10T13:07:13;5.78;;;3.42;;
34278;SDS011;20538;51.528;9.942;2023-05-10T13:09:39;8.55;;;3.63;;
34278;SDS011;20538;51.528;9.942;2023-05-10T13:12:05;5.55;;;3.75;;
34278;SDS011;20538;51.528;9.942;2023-05-10T13:14:30;8.90;;;4.10;;
34278;SDS011;20538;51.528;9.942;2023-05-10T13:16:56;5.40;;;3.88;;
34278;SDS011;20538;51.528;9.942;2023-05-10T13:19:22;4.25;;;3.47;;
34278;SDS011;20538;51.528;9.942;2023-05-10T13:21:47;6.38;;;3.70;;
34278;SDS011;20538;51.528;9.942;2023-05-10T13:24:13;5.30;;;3.30;;
34278;SDS011;20538;51.528;9.942;2023-05-10T13:26:39;8.40;;;3.83;;
34278;SDS011;20538;51.528;9.942;2023-05-10T13:29:05;6.25;;;4.70;;
34278;SDS011;20538;51.528;9.942;2023-05-10T13:31:31;5.00;;;3.53;;
34278;SDS011;20538;51.528;9.942;2023-05-10T13:33:57;5.38;;;3.70;;
34278;SDS011;20538;51.528;9.942;2023-05-10T13:36:23;5.40;;;3.40;;
34278;SDS011;20538;51.528;9.942;2023-05-10T13:38:49;5.82;;;3.95;;
34278;SDS011;20538;51.528;9.942;2023-05-10T13:41:15;5.55;;;3.78;;
34278;SDS011;20538;51.528;9.942;2023-05-10T13:43:41;5.50;;;3.85;;
34278;SDS011;20538;51.528;9.942;2023-05-10T13:46:06;5.18;;;3.50;;
34278;SDS011;20538;51.528;9.942;2023-05-10T13:48:32;4.05;;;3.25;;
34278;SDS011;20538;51.528;9.942;2023-05-10T13:50:58;7.00;;;3.25;;
34278;SDS011;20538;51.528;9.942;2023-05-10T13:53:23;6.00;;;3.20;;
34278;SDS011;20538;51.528;9.942;2023-05-10T13:55:49;5.78;;;3.42;;
34278;SDS011;20538;51.528;9.942;2023-05-10T13:58:15;4.90;;;3.53;;
34278;SDS011;20538;51.528;9.942;2023-05-10T14:00:41;5.60;;;3.95;;
34278;SDS011;20538;51.528;9.942;2023-05-10T14:03:06;4.97;;;3.38;;
34278;SDS011;20538;51.528;9.942;2023-05-10T14:05:35;5.28;;;3.05;;
34278;SDS011;20538;51.528;9.942;2023-05-10T14:08:01;5.07;;;3.50;;
34278;SDS011;20538;51.528;9.942;2023-05-10T14:10:28;6.10;;;3.78;;
34278;SDS011;20538;51.528;9.942;2023-05-10T14:12:55;5.50;;;3.58;;
34278;SDS011;20538;51.528;9.942;2023-05-10T14:15:20;4.80;;;3.35;;
34278;SDS011;20538;51.528;9.942;2023-05-10T14:17:46;5.07;;;3.70;;
34278;SDS011;20538;51.528;9.942;2023-05-10T14:20:12;4.93;;;3.58;;
34278;SDS011;20538;51.528;9.942;2023-05-10T14:22:37;5.53;;;3.83;;
34278;SDS011;20538;51.528;9.942;2023-05-10T14:25:03;4.85;;;3.83;;
34278;SDS011;20538;51.528;9.942;2023-05-10T14:27:29;5.80;;;3.47;;
34278;SDS011;20538;51.528;9.942;2023-05-10T14:29:55;5.90;;;3.72;;
34278;SDS011;20538;51.528;9.942;2023-05-10T14:32:21;5.68;;;3.42;;
34278;SDS011;20538;51.528;9.942;2023-05-10T14:34:47;10.93;;;3.90;;
34278;SDS011;20538;51.528;9.942;2023-05-10T14:37:13;7.53;;;4.38;;
34278;SDS011;20538;51.528;9.942;2023-05-10T14:39:40;8.07;;;4.57;;
34278;SDS011;20538;51.528;9.942;2023-05-10T14:42:07;6.53;;;3.85;;
34278;SDS011;20538;51.528;9.942;2023-05-10T14:44:33;7.88;;;3.97;;
34278;SDS011;20538;51.528;9.942;2023-05-10T14:46:59;8.77;;;3.85;;
34278;SDS011;20538;51.528;9.942;2023-05-10T14:49:25;7.78;;;4.00;;
34278;SDS011;20538;51.528;9.942;2023-05-10T14:51:51;6.25;;;3.70;;
34278;SDS011;20538;51.528;9.942;2023-05-10T14:54:17;9.90;;;3.95;;
34278;SDS011;20538;51.528;9.942;2023-05-10T14:56:45;5.65;;;4.03;;
34278;SDS011;20538;51.528;9.942;2023-05-10T14:59:11;8.93;;;4.25;;
34278;SDS011;20538;51.528;9.942;2023-05-10T15:01:36;5.57;;;3.95;;
34278;SDS011;20538;51.528;9.942;2023-05-10T15:04:05;9.15;;;3.97;;
34278;SDS011;20538;51.528;9.942;2023-05-10T15:06:31;7.57;;;3.88;;
34278;SDS011;20538;51.528;9.942;2023-05-10T15:09:01;5.28;;;3.22;;
34278;SDS011;20538;51.528;9.942;2023-05-10T15:11:28;4.88;;;3.42;;
34278;SDS011;20538;51.528;9.942;2023-05-10T15:13:54;4.03;;;3.10;;
34278;SDS011;20538;51.528;9.942;2023-05-10T15:16:20;4.97;;;3.00;;
34278;SDS011;20538;51.528;9.942;2023-05-10T15:18:46;4.13;;;3.00;;
34278;SDS011;20538;51.528;9.942;2023-05-10T15:21:11;4.25;;;3.30;;
34278;SDS011;20538;51.528;9.942;2023-05-10T15:23:37;3.97;;;2.80;;
34278;SDS011;20538;51.528;9.942;2023-05-10T15:26:03;5.68;;;2.80;;
34278;SDS011;20538;51.528;9.942;2023-05-10T15:28:29;5.47;;;2.67;;
34278;SDS011;20538;51.528;9.942;2023-05-10T15:30:55;6.28;;;3.15;;
34278;SDS011;20538;51.528;9.942;2023-05-10T15:33:21;3.85;;;2.47;;
34278;SDS011;20538;51.528;9.942;2023-05-10T15:35:47;5.60;;;2.28;;
34278;SDS011;20538;51.528;9.942;2023-05-10T15:38:13;2.25;;;1.77;;